Terminal Aerodrome Forecast
Issued by NWS Northern Indiana

Home | Current Version | Previous Version | Text Only | Print | Product List | Glossary On
Versions: 1 2 3 4 5 6 7 8 9 10 11 12 13
479
FTUS43 KIWX 231120
TAFFWA
TAF
KFWA 231120Z 2312/2412 10008KT P6SM SCT150 BKN250
     FM231600 13012KT P6SM BKN100
     FM240000 14008KT P6SM BKN080
     FM240300 16010KT P6SM BKN060 WS020/20040KT
     FM240600 20012KT P6SM SCT060 BKN150 WS020/21055KT=

USA.gov is the U.S. government's official web portal to all federal, state and local government web resources and services.